Weather at Bournemouth Airport

Public forecast

Using degrees Celsius for public forecast. Weather courtesy of forecast.io.

Current aviation weather report (METAR) for Bournemouth Airport

2024/05/26 15:50 (retrieved 12 minutes ago)

EGHH 261550Z 23018KT 9999 SCT023 16/11 Q1012

Closest aviation forecast (TAF) to Bournemouth Airport

Forecast is more than 12 hours old.

Closest forecast is RAF Odiham, 43.6 nm (80.7 km) NE.

2024/05/24 12:09 (retrieved 2 days ago)

TAF TAF EGVO 241305Z 2412/2424 CNL